createdAt,value
2023-01-06T00:01:23.104Z,98276.50
2023-01-06T00:03:54.511Z,98271.44
2023-01-06T00:06:27.858Z,98262.69
2023-01-06T00:08:59.617Z,98265.47
2023-01-06T00:11:30.860Z,98272.41
2023-01-06T00:14:01.838Z,98264.59
2023-01-06T00:16:35.025Z,98261.94
2023-01-06T00:19:05.951Z,98267.34
2023-01-06T00:21:36.323Z,98256.38
2023-01-06T00:24:06.983Z,98260.03
2023-01-06T00:26:37.175Z,98254.41
2023-01-06T00:29:07.798Z,98254.59
2023-01-06T00:31:41.703Z,98258.25
2023-01-06T00:34:14.148Z,98256.28
2023-01-06T00:36:44.528Z,98253.72
2023-01-06T00:39:15.719Z,98251.41
2023-01-06T00:42:03.901Z,98247.88
2023-01-06T00:44:35.119Z,98251.53
2023-01-06T00:47:12.758Z,98243.56
2023-01-06T00:49:43.178Z,98249.06
2023-01-06T00:52:13.733Z,98253.38
2023-01-06T00:54:44.508Z,98246.53
2023-01-06T00:57:14.862Z,98253.78
2023-01-06T00:59:45.194Z,98249.56
2023-01-06T01:02:18.280Z,98248.66
2023-01-06T01:04:48.725Z,98239.84
2023-01-06T01:07:19.966Z,98239.75
2023-01-06T01:09:50.213Z,98243.88
2023-01-06T01:12:20.627Z,98241.09
2023-01-06T01:14:52.834Z,98241.44
2023-01-06T01:17:31.778Z,98241.63
2023-01-06T01:20:02.715Z,98237.97
2023-01-06T01:22:34.487Z,98236.69
2023-01-06T01:25:04.803Z,98243.13
2023-01-06T01:27:35.137Z,98245.56
2023-01-06T01:30:05.416Z,98251.41
2023-01-06T01:32:38.350Z,98244.63
2023-01-06T01:35:09.973Z,98248.38
2023-01-06T01:37:41.901Z,98244.28
2023-01-06T01:40:14.426Z,98232.44
2023-01-06T01:42:44.714Z,98239.50
2023-01-06T01:45:26.383Z,98237.97
2023-01-06T01:48:04.662Z,98236.44
2023-01-06T01:50:38.970Z,98242.28
2023-01-06T01:53:17.119Z,98233.44
2023-01-06T01:55:47.720Z,98244.38
2023-01-06T01:58:23.689Z,98230.69
2023-01-06T02:00:55.291Z,98226.69
2023-01-06T02:03:29.625Z,98232.56
2023-01-06T02:06:05.788Z,98234.53
2023-01-06T02:08:40.509Z,98235.13
2023-01-06T02:11:12.012Z,98231.00
2023-01-06T02:13:44.957Z,98232.16
2023-01-06T02:16:28.700Z,98228.94
2023-01-06T02:19:07.690Z,98222.47
2023-01-06T02:22:09.992Z,98213.25
2023-01-06T02:25:30.811Z,98218.91
2023-01-06T02:28:34.130Z,98218.59
2023-01-06T02:31:39.170Z,98211.97
2023-01-06T02:34:20.997Z,98215.06
2023-01-06T02:36:59.148Z,98201.81
2023-01-06T02:39:42.832Z,98200.00
2023-01-06T02:42:23.151Z,98205.41
2023-01-06T02:45:07.074Z,98203.41
2023-01-06T02:47:52.585Z,98188.34
2023-01-06T02:50:34.164Z,98178.22
2023-01-06T02:53:13.575Z,98175.13
2023-01-06T02:55:49.093Z,98163.75
2023-01-06T02:58:30.554Z,98161.47
2023-01-06T03:01:07.785Z,98159.16
2023-01-06T03:03:45.758Z,98160.56
2023-01-06T03:06:20.618Z,98153.66
2023-01-06T03:08:55.168Z,98162.88
2023-01-06T03:11:29.233Z,98160.78
2023-01-06T03:14:05.804Z,98163.41
2023-01-06T03:16:37.364Z,98163.41
2023-01-06T03:19:10.874Z,98159.41
2023-01-06T03:21:46.186Z,98157.50
2023-01-06T03:24:16.984Z,98154.72
2023-01-06T03:26:51.227Z,98155.94
2023-01-06T03:29:22.888Z,98151.97
2023-01-06T03:32:05.080Z,98152.09
2023-01-06T03:35:06.132Z,98145.19
2023-01-06T03:37:47.771Z,98136.28
2023-01-06T03:40:31.895Z,98143.19
2023-01-06T03:43:13.671Z,98131.66
2023-01-06T03:45:58.512Z,98128.13
2023-01-06T03:48:56.605Z,98127.66
2023-01-06T03:51:41.574Z,98133.31
2023-01-06T03:54:28.452Z,98134.88
2023-01-06T03:57:08.304Z,98136.59
2023-01-06T03:59:44.733Z,98124.94
2023-01-06T04:02:17.261Z,98122.78
2023-01-06T04:04:47.799Z,98126.59
2023-01-06T04:07:20.867Z,98121.06
2023-01-06T04:09:51.160Z,98116.31
2023-01-06T04:12:34.586Z,98109.72
2023-01-06T04:15:04.978Z,98111.72
2023-01-06T04:17:36.475Z,98114.91
2023-01-06T04:20:08.229Z,98115.06
2023-01-06T04:22:41.700Z,98111.38
2023-01-06T04:25:13.307Z,98103.69
2023-01-06T04:27:44.200Z,98109.84
2023-01-06T04:30:15.878Z,98105.84
2023-01-06T04:32:46.867Z,98096.78
2023-01-06T04:35:17.532Z,98096.00
2023-01-06T04:37:50.822Z,98094.19
2023-01-06T04:40:21.124Z,98093.56
2023-01-06T04:43:03.769Z,98089.22
2023-01-06T04:45:34.115Z,98093.81
2023-01-06T04:48:04.505Z,98096.00
2023-01-06T04:50:34.934Z,98097.34
2023-01-06T04:53:08.489Z,98097.66
2023-01-06T04:55:41.389Z,98096.13
2023-01-06T04:58:12.281Z,98094.13
2023-01-06T05:00:42.709Z,98100.84
2023-01-06T05:03:13.057Z,98086.88
2023-01-06T05:05:43.402Z,98090.56
2023-01-06T05:08:16.335Z,98093.78
2023-01-06T05:10:46.613Z,98086.41
2023-01-06T05:13:16.898Z,98085.81
2023-01-06T05:15:47.149Z,98086.09
2023-01-06T05:18:17.423Z,98081.34
2023-01-06T05:20:47.733Z,98083.06
2023-01-06T05:23:20.708Z,98081.84
2023-01-06T05:25:53.498Z,98079.06
2023-01-06T05:28:24.262Z,98076.75
2023-01-06T05:30:55.819Z,98070.31
2023-01-06T05:33:26.120Z,98075.69
2023-01-06T05:36:01.156Z,98075.22
2023-01-06T05:38:34.503Z,98068.63
2023-01-06T05:41:05.428Z,98062.31
2023-01-06T05:43:38.113Z,98062.47
2023-01-06T05:46:10.121Z,98062.31
2023-01-06T05:48:41.585Z,98060.66
2023-01-06T05:51:15.057Z,98060.50
2023-01-06T05:53:51.592Z,98056.03
2023-01-06T05:56:24.059Z,98061.56
2023-01-06T05:58:56.602Z,98049.88
2023-01-06T06:01:29.181Z,98065.25
2023-01-06T06:04:00.124Z,98055.28
2023-01-06T06:06:32.557Z,98058.84
2023-01-06T06:09:08.820Z,98058.22
2023-01-06T06:11:39.180Z,98065.59
2023-01-06T06:14:13.163Z,98055.19
2023-01-06T06:16:43.470Z,98049.03
2023-01-06T06:19:16.135Z,98043.66
2023-01-06T06:21:46.437Z,98049.47
2023-01-06T06:24:19.400Z,98043.19
2023-01-06T06:26:49.750Z,98043.50
2023-01-06T06:29:20.260Z,98043.66
2023-01-06T06:31:50.658Z,98045.81
2023-01-06T06:34:21.264Z,98045.50
2023-01-06T06:36:51.636Z,98050.41
2023-01-06T06:39:24.687Z,98049.78
2023-01-06T06:41:55.013Z,98044.25
2023-01-06T06:44:25.396Z,98048.25
2023-01-06T06:46:55.779Z,98054.41
2023-01-06T06:49:26.116Z,98050.88
2023-01-06T06:51:56.460Z,98051.50
2023-01-06T06:54:29.371Z,98049.50
2023-01-06T06:56:59.685Z,98045.78
2023-01-06T06:59:30.071Z,98053.94
2023-01-06T07:02:00.509Z,98057.34
2023-01-06T07:04:30.945Z,98046.72
2023-01-06T07:07:01.426Z,98055.03
2023-01-06T07:09:34.497Z,98051.50
2023-01-06T07:12:04.793Z,98058.06
2023-01-06T07:14:35.185Z,98048.69
2023-01-06T07:17:05.589Z,98056.53
2023-01-06T07:19:35.996Z,98043.16
2023-01-06T07:22:06.349Z,98054.69
2023-01-06T07:24:39.328Z,98033.50
2023-01-06T07:27:09.596Z,98038.53
2023-01-06T07:29:39.919Z,98043.78
2023-01-06T07:32:10.442Z,98032.88
2023-01-06T07:34:40.797Z,98035.34
2023-01-06T07:37:11.130Z,98042.25
2023-01-06T07:39:44.133Z,98033.47
2023-01-06T07:42:14.886Z,98029.47
2023-01-06T07:44:45.173Z,98026.69
2023-01-06T07:47:15.483Z,98029.56
2023-01-06T07:49:45.743Z,98022.53
2023-01-06T07:52:15.948Z,98017.88
2023-01-06T07:54:49.020Z,98009.28
2023-01-06T07:57:19.392Z,98012.19
2023-01-06T07:59:49.719Z,98017.00
2023-01-06T08:02:20.205Z,98018.81
2023-01-06T08:04:50.777Z,98021.69
2023-01-06T08:07:21.395Z,98018.59
2023-01-06T08:09:54.425Z,98015.69
2023-01-06T08:12:24.895Z,98022.59
2023-01-06T08:14:55.326Z,98013.22
2023-01-06T08:17:25.775Z,98016.31
2023-01-06T08:19:56.189Z,98014.13
2023-01-06T08:22:26.567Z,98009.03
2023-01-06T08:24:59.589Z,98008.91
2023-01-06T08:27:30.875Z,98012.13
2023-01-06T08:30:01.227Z,98013.31
2023-01-06T08:32:31.559Z,98009.16
2023-01-06T08:35:01.925Z,98024.06
2023-01-06T08:37:32.291Z,98019.88
2023-01-06T08:40:05.368Z,98024.16
2023-01-06T08:42:35.750Z,98017.50
2023-01-06T08:45:07.848Z,98030.09
2023-01-06T08:47:39.066Z,98027.44
2023-01-06T08:50:10.367Z,98025.00
2023-01-06T08:52:40.711Z,98028.69
2023-01-06T08:55:14.149Z,98035.56
2023-01-06T08:57:44.498Z,98029.44
2023-01-06T09:00:17.198Z,98037.19
2023-01-06T09:02:47.642Z,98030.03
2023-01-06T09:05:18.548Z,98028.91
2023-01-06T09:07:50.732Z,98034.13
2023-01-06T09:10:24.577Z,98040.75
2023-01-06T09:12:54.988Z,98050.88
2023-01-06T09:15:25.418Z,98042.09
2023-01-06T09:17:55.798Z,98046.41
2023-01-06T09:20:27.265Z,98049.94
2023-01-06T09:22:57.654Z,98057.13
2023-01-06T09:25:30.839Z,98047.22
2023-01-06T09:28:01.728Z,98060.72
2023-01-06T09:30:32.357Z,98050.63
2023-01-06T09:33:02.761Z,98050.94
2023-01-06T09:35:33.115Z,98045.63
2023-01-06T09:38:03.558Z,98050.41
2023-01-06T09:40:53.333Z,98049.81
2023-01-06T09:43:35.936Z,98044.84
2023-01-06T09:46:08.793Z,98036.78
2023-01-06T09:48:46.274Z,98046.88
2023-01-06T09:51:23.415Z,98041.06
2023-01-06T09:53:59.870Z,98050.53
2023-01-06T09:56:33.981Z,98050.31
2023-01-06T09:59:10.738Z,98039.63
2023-01-06T10:01:48.808Z,98028.19
2023-01-06T10:04:25.201Z,98032.00
2023-01-06T10:07:13.520Z,98023.66
2023-01-06T10:10:00.593Z,98025.25
2023-01-06T10:12:53.924Z,98020.34
2023-01-06T10:15:34.363Z,98021.22
2023-01-06T10:18:24.441Z,98016.00
2023-01-06T10:21:12.570Z,98014.34
2023-01-06T10:24:10.951Z,98005.81
2023-01-06T10:26:46.615Z,98006.78
2023-01-06T10:29:22.402Z,97998.47
2023-01-06T10:31:56.873Z,97995.31
2023-01-06T10:34:29.229Z,98003.63
2023-01-06T10:37:05.708Z,97998.47
2023-01-06T10:39:40.123Z,97995.03
2023-01-06T10:42:36.962Z,97980.03
2023-01-06T10:45:14.030Z,97990.81
2023-01-06T10:47:46.588Z,97983.47
2023-01-06T10:50:20.123Z,97981.16
2023-01-06T10:52:51.831Z,97981.16
2023-01-06T10:55:42.938Z,97969.28
2023-01-06T10:58:36.512Z,97964.91
2023-01-06T11:01:15.996Z,97972.38
2023-01-06T11:03:47.613Z,97970.81
2023-01-06T11:06:28.692Z,97976.69
2023-01-06T11:08:59.201Z,97982.78
2023-01-06T11:11:29.682Z,97974.16
2023-01-06T11:14:05.643Z,97973.59
2023-01-06T11:16:40.156Z,97963.84
2023-01-06T11:19:25.686Z,97973.03
2023-01-06T11:21:56.236Z,97974.19
2023-01-06T11:24:29.319Z,97957.84
2023-01-06T11:27:01.770Z,97970.00
2023-01-06T11:29:35.674Z,97964.06
2023-01-06T11:32:19.117Z,97964.06
2023-01-06T11:34:57.190Z,97966.44
2023-01-06T11:37:36.932Z,97955.53
2023-01-06T11:40:28.383Z,97951.63
2023-01-06T11:43:02.483Z,97942.09
2023-01-06T11:45:36.976Z,97958.81
2023-01-06T11:48:18.027Z,97944.59
2023-01-06T11:50:55.818Z,97931.28
2023-01-06T11:53:27.482Z,97944.03
2023-01-06T11:56:04.073Z,97942.13
2023-01-06T11:58:54.709Z,97941.06
2023-01-06T12:01:37.838Z,97928.06
2023-01-06T12:04:21.364Z,97924.69
2023-01-06T12:06:55.443Z,97936.78
2023-01-06T12:09:33.283Z,97932.19
2023-01-06T12:12:09.147Z,97929.38
2023-01-06T12:14:42.276Z,97933.50
2023-01-06T12:17:22.527Z,97932.84
2023-01-06T12:20:02.101Z,97942.59
2023-01-06T12:22:40.117Z,97949.69
2023-01-06T12:25:20.814Z,97942.22
2023-01-06T12:27:56.304Z,97952.94
2023-01-06T12:30:33.073Z,97949.00
2023-01-06T12:33:11.004Z,97961.94
2023-01-06T12:35:48.449Z,97959.28
2023-01-06T12:38:36.274Z,97965.59
2023-01-06T12:41:14.781Z,97963.69
2023-01-06T12:43:52.185Z,97956.97
2023-01-06T12:46:29.419Z,97962.03
2023-01-06T12:49:06.030Z,97966.94
2023-01-06T12:51:45.510Z,97977.28
2023-01-06T12:54:21.763Z,97977.19
2023-01-06T12:57:08.356Z,97978.31
2023-01-06T12:59:55.414Z,97974.31
2023-01-06T13:02:53.778Z,97988.91
2023-01-06T13:05:52.850Z,97983.16
2023-01-06T13:08:42.764Z,97987.56
2023-01-06T13:11:26.413Z,97981.41
2023-01-06T13:14:07.854Z,97991.16
2023-01-06T13:16:46.998Z,97995.53
2023-01-06T13:19:34.725Z,97996.72
2023-01-06T13:22:09.214Z,97980.41
2023-01-06T13:25:03.875Z,97989.84
2023-01-06T13:27:58.936Z,97982.81
2023-01-06T13:30:44.330Z,97964.63
2023-01-06T13:33:59.073Z,97975.81
2023-01-06T13:37:17.582Z,97968.06
2023-01-06T13:39:56.794Z,97966.25
2023-01-06T13:42:38.440Z,97964.72
2023-01-06T13:45:17.862Z,97967.13
2023-01-06T13:47:50.251Z,97963.84
2023-01-06T13:50:23.910Z,97962.13
2023-01-06T13:52:54.968Z,97952.28
2023-01-06T13:55:31.520Z,97953.22
2023-01-06T13:58:38.669Z,97948.69
2023-01-06T14:01:14.469Z,97948.22
2023-01-06T14:03:46.354Z,97955.91
2023-01-06T14:06:49.448Z,97949.22
2023-01-06T14:09:21.818Z,97952.75
2023-01-06T14:11:55.030Z,97967.38
2023-01-06T14:14:29.674Z,97965.09
2023-01-06T14:17:01.146Z,97967.03
2023-01-06T14:19:36.570Z,97970.19
2023-01-06T14:22:20.262Z,97970.00
2023-01-06T14:24:54.793Z,97973.75
2023-01-06T14:28:24.749Z,97985.19
2023-01-06T14:31:50.405Z,97986.50
2023-01-06T14:34:22.337Z,97979.44
2023-01-06T14:36:57.005Z,97981.97
2023-01-06T14:39:30.244Z,97992.44
2023-01-06T14:42:06.381Z,98000.84
2023-01-06T14:44:46.746Z,97996.41
2023-01-06T14:47:26.104Z,98006.09
2023-01-06T14:50:01.280Z,98015.59
2023-01-06T14:52:37.543Z,98021.59
2023-01-06T14:55:14.138Z,98016.91
2023-01-06T14:57:44.502Z,98009.50
2023-01-06T15:00:24.326Z,98013.47
2023-01-06T15:03:00.492Z,98017.56
2023-01-06T15:05:34.879Z,97999.84
2023-01-06T15:08:08.174Z,98003.53
2023-01-06T15:10:41.852Z,98013.31
2023-01-06T15:13:24.974Z,98008.28
2023-01-06T15:16:07.738Z,98008.41
2023-01-06T15:18:46.675Z,98012.38
2023-01-06T15:21:18.105Z,98011.16
2023-01-06T15:23:51.089Z,98017.94
2023-01-06T15:26:23.988Z,98029.81
2023-01-06T15:29:05.923Z,98022.91
2023-01-06T15:31:39.063Z,98027.56
2023-01-06T15:34:17.465Z,98030.47
2023-01-06T15:36:50.584Z,98046.91
2023-01-06T15:39:29.074Z,98047.56
2023-01-06T15:42:02.444Z,98050.97
2023-01-06T15:44:35.738Z,98048.97
2023-01-06T15:47:20.973Z,98051.25
2023-01-06T15:49:57.679Z,98049.16
2023-01-06T15:52:32.608Z,98055.34
2023-01-06T15:55:07.394Z,98041.50
2023-01-06T15:57:41.896Z,98045.22
2023-01-06T16:00:25.871Z,98052.91
2023-01-06T16:02:56.675Z,98049.19
2023-01-06T16:05:48.751Z,98051.84
2023-01-06T16:08:27.306Z,98058.94
2023-01-06T16:11:42.178Z,98071.09
2023-01-06T16:14:32.426Z,98069.41
2023-01-06T16:17:13.303Z,98068.03
2023-01-06T16:19:50.628Z,98072.97
2023-01-06T16:22:35.703Z,98071.88
2023-01-06T16:25:10.374Z,98074.97
2023-01-06T16:27:40.830Z,98075.44
2023-01-06T16:30:25.562Z,98092.38
2023-01-06T16:32:57.258Z,98093.91
2023-01-06T16:35:29.797Z,98090.06
2023-01-06T16:38:03.717Z,98089.75
2023-01-06T16:40:34.579Z,98087.75
2023-01-06T16:43:06.141Z,98090.53
2023-01-06T16:45:41.829Z,98087.75
2023-01-06T16:48:17.126Z,98091.75
2023-01-06T16:50:53.267Z,98091.75
2023-01-06T16:53:33.754Z,98092.22
2023-01-06T16:56:04.868Z,98095.44
2023-01-06T16:58:37.928Z,98092.66
2023-01-06T17:01:16.885Z,98096.19
2023-01-06T17:03:52.759Z,98100.66
2023-01-06T17:06:24.924Z,98109.09
2023-01-06T17:09:00.013Z,98101.28
2023-01-06T17:11:33.395Z,98107.75
2023-01-06T17:14:06.998Z,98113.41
2023-01-06T17:16:43.168Z,98100.50
2023-01-06T17:19:23.369Z,98103.91
2023-01-06T17:21:58.078Z,98103.13
2023-01-06T17:24:33.814Z,98106.53
2023-01-06T17:27:26.739Z,98113.00
2023-01-06T17:30:01.730Z,98111.28
2023-01-06T17:32:40.370Z,98110.22
2023-01-06T17:35:28.265Z,98107.44
2023-01-06T17:38:02.223Z,98106.50
2023-01-06T17:40:38.573Z,98112.50
2023-01-06T17:43:31.320Z,98119.59
2023-01-06T17:46:03.467Z,98106.53
2023-01-06T17:48:35.241Z,98115.75
2023-01-06T17:51:05.641Z,98124.97
2023-01-06T17:53:51.492Z,98126.03
2023-01-06T17:56:31.409Z,98129.56
2023-01-06T17:59:24.684Z,98134.19
2023-01-06T18:02:04.831Z,98145.59
2023-01-06T18:04:38.368Z,98142.03
2023-01-06T18:07:15.053Z,98147.91
2023-01-06T18:09:45.421Z,98149.13
2023-01-06T18:12:23.497Z,98150.97
2023-01-06T18:14:55.926Z,98154.34
2023-01-06T18:17:30.221Z,98144.34
2023-01-06T18:20:00.568Z,98154.47
2023-01-06T18:22:38.380Z,98154.97
2023-01-06T18:25:22.180Z,98153.56
2023-01-06T18:27:55.307Z,98151.56
2023-01-06T18:30:28.575Z,98157.72
2023-01-06T18:33:01.731Z,98156.34
2023-01-06T18:35:33.041Z,98152.78
2023-01-06T18:38:05.722Z,98167.72
2023-01-06T18:40:38.248Z,98169.41
2023-01-06T18:43:27.961Z,98161.41
2023-01-06T18:46:01.296Z,98164.78
2023-01-06T18:48:38.596Z,98168.94
2023-01-06T18:51:22.002Z,98169.53
2023-01-06T18:53:53.864Z,98169.69
2023-01-06T18:56:27.554Z,98171.06
2023-01-06T18:59:03.393Z,98170.28
2023-01-06T19:01:44.191Z,98184.59
2023-01-06T19:04:22.350Z,98183.69
2023-01-06T19:07:01.412Z,98176.75
2023-01-06T19:09:37.474Z,98189.53
2023-01-06T19:12:29.504Z,98186.16
2023-01-06T19:15:22.791Z,98187.22
2023-01-06T19:17:57.777Z,98183.69
2023-01-06T19:20:35.193Z,98186.59
2023-01-06T19:23:19.024Z,98184.75
2023-01-06T19:25:54.965Z,98188.59
2023-01-06T19:28:30.503Z,98194.41
2023-01-06T19:31:07.902Z,98191.19
2023-01-06T19:33:42.618Z,98188.25
2023-01-06T19:36:47.129Z,98192.50
2023-01-06T19:39:33.733Z,98186.56
2023-01-06T19:42:22.878Z,98182.59
2023-01-06T19:45:02.879Z,98183.34
2023-01-06T19:47:42.825Z,98174.28
2023-01-06T19:50:25.350Z,98177.63
2023-01-06T19:53:04.203Z,98185.19
2023-01-06T19:55:36.209Z,98172.41
2023-01-06T19:58:18.060Z,98178.59
2023-01-06T20:00:52.577Z,98180.41
2023-01-06T20:03:32.908Z,98186.53
2023-01-06T20:06:03.404Z,98185.44
2023-01-06T20:08:37.160Z,98193.56
2023-01-06T20:11:08.088Z,98192.69
2023-01-06T20:13:39.090Z,98184.97
2023-01-06T20:16:11.378Z,98193.88
2023-01-06T20:18:44.474Z,98191.41
2023-01-06T20:21:14.775Z,98192.94
2023-01-06T20:23:45.100Z,98188.38
2023-01-06T20:26:15.500Z,98193.28
2023-01-06T20:28:46.043Z,98193.66
2023-01-06T20:31:16.507Z,98190.59
2023-01-06T20:33:49.595Z,98193.97
2023-01-06T20:36:19.931Z,98198.56
2023-01-06T20:38:50.261Z,98193.94
2023-01-06T20:41:21.039Z,98196.06
2023-01-06T20:43:51.457Z,98203.75
2023-01-06T20:46:21.822Z,98199.94
2023-01-06T20:48:54.828Z,98201.50
2023-01-06T20:51:25.259Z,98202.53
2023-01-06T20:53:55.764Z,98207.16
2023-01-06T20:56:26.279Z,98203.47
2023-01-06T20:58:56.651Z,98207.16
2023-01-06T21:01:27.182Z,98207.16
2023-01-06T21:04:00.258Z,98207.13
2023-01-06T21:06:30.648Z,98212.06
2023-01-06T21:09:01.037Z,98216.34
2023-01-06T21:11:31.462Z,98219.13
2023-01-06T21:14:01.845Z,98204.22
2023-01-06T21:16:32.237Z,98204.69
2023-01-06T21:19:05.293Z,98216.41
2023-01-06T21:21:35.594Z,98219.94
2023-01-06T21:24:06.124Z,98212.66
2023-01-06T21:26:36.707Z,98208.78
2023-01-06T21:29:07.017Z,98214.50
2023-01-06T21:31:37.326Z,98212.06
2023-01-06T21:34:10.524Z,98208.84
2023-01-06T21:36:40.980Z,98216.91
2023-01-06T21:39:12.026Z,98211.09
2023-01-06T21:41:54.496Z,98217.75
2023-01-06T21:44:24.816Z,98216.22
2023-01-06T21:46:55.185Z,98214.69
2023-01-06T21:49:28.194Z,98216.97
2023-01-06T21:51:59.729Z,98211.88
2023-01-06T21:54:30.078Z,98212.50
2023-01-06T21:57:00.682Z,98212.81
2023-01-06T21:59:31.139Z,98210.22
2023-01-06T22:02:01.637Z,98214.69
2023-01-06T22:04:34.750Z,98209.44
2023-01-06T22:07:09.356Z,98203.59
2023-01-06T22:09:40.604Z,98203.09
2023-01-06T22:12:14.856Z,98204.50
2023-01-06T22:14:46.212Z,98210.34
2023-01-06T22:17:16.902Z,98220.19
2023-01-06T22:19:51.574Z,98212.50
2023-01-06T22:22:22.932Z,98223.44
2023-01-06T22:24:55.050Z,98220.50
2023-01-06T22:27:25.949Z,98222.38
2023-01-06T22:29:56.242Z,98212.66
2023-01-06T22:32:27.776Z,98212.81
2023-01-06T22:35:00.870Z,98207.56
2023-01-06T22:37:31.187Z,98206.03
2023-01-06T22:40:01.634Z,98210.69
2023-01-06T22:42:31.982Z,98212.09
2023-01-06T22:45:02.363Z,98214.81
2023-01-06T22:47:32.738Z,98217.41
2023-01-06T22:50:05.656Z,98218.34
2023-01-06T22:52:35.980Z,98214.69
2023-01-06T22:55:07.273Z,98216.34
2023-01-06T22:57:37.580Z,98219.13
2023-01-06T23:00:15.129Z,98217.25
2023-01-06T23:02:45.773Z,98218.03
2023-01-06T23:05:18.944Z,98221.75
2023-01-06T23:07:49.312Z,98222.06
2023-01-06T23:10:19.831Z,98217.03
2023-01-06T23:12:52.473Z,98215.03
2023-01-06T23:15:22.748Z,98219.00
2023-01-06T23:17:53.124Z,98209.16
2023-01-06T23:20:26.065Z,98210.28
2023-01-06T23:22:56.383Z,98212.84
2023-01-06T23:25:27.213Z,98220.69
2023-01-06T23:27:57.538Z,98209.16
2023-01-06T23:30:27.873Z,98207.31
2023-01-06T23:32:58.213Z,98216.69
2023-01-06T23:35:31.906Z,98201.50
2023-01-06T23:38:03.555Z,98217.47
2023-01-06T23:40:34.329Z,98212.22
2023-01-06T23:43:04.664Z,98215.31
2023-01-06T23:45:35.223Z,98211.78
2023-01-06T23:48:05.653Z,98210.41
2023-01-06T23:50:38.756Z,98201.94
2023-01-06T23:53:09.032Z,98206.41
2023-01-06T23:55:39.340Z,98205.94
2023-01-06T23:58:09.628Z,98207.50
